Time;durP1;ratioP1;P1;durP2;ratioP2;P2;SDS_P1;SDS_P2;PMS_P1;PMS_P2;Temp;Humidity;BMP_temperature;BMP_pressure;BME280_temperature;BME280_humidity;BME280_pressure;Samples;Min_cycle;Max_cycle;Signal;HPM_P1;HPM_P2
2021/10/23 00:01:20;;;;;;;3.08;1.38;;;;;;;-0.13;100.00;96140.28;4952634;29;20035;-61
2021/10/23 00:03:45;;;;;;;6.65;1.60;;;;;;;-0.19;100.00;96141.00;4936655;29;20115;-61
2021/10/23 00:06:16;;;;;;;2.13;1.10;;;;;;;-0.22;100.00;96136.84;4954145;29;20031;-60
2021/10/23 00:08:45;;;;;;;5.03;1.20;;;;;;;-0.25;100.00;96133.75;4952736;29;20038;-61
2021/10/23 00:11:11;;;;;;;2.42;1.30;;;;;;;-0.25;100.00;96141.66;4936533;29;20020;-60
2021/10/23 00:13:42;;;;;;;2.83;1.30;;;;;;;-0.26;100.00;96138.22;4936090;28;20199;-59
2021/10/23 00:16:07;;;;;;;3.25;1.80;;;;;;;-0.28;100.00;96131.47;4952636;29;20031;-60
2021/10/23 00:18:39;;;;;;;3.15;1.30;;;;;;;-0.34;100.00;96123.25;4952643;29;20035;-60
2021/10/23 00:21:04;;;;;;;2.83;1.45;;;;;;;-0.34;100.00;96120.63;4953531;29;20050;-60
2021/10/23 00:23:38;;;;;;;4.05;1.10;;;;;;;-0.40;100.00;96118.69;4935938;29;20027;-59
2021/10/23 00:26:06;;;;;;;8.38;1.67;;;;;;;-0.38;100.00;96123.78;4953666;29;20106;-60
2021/10/23 00:28:31;;;;;;;2.42;1.25;;;;;;;-0.38;100.00;96116.72;4953466;29;20042;-57
2021/10/23 00:30:57;;;;;;;3.40;1.30;;;;;;;-0.38;100.00;96121.97;4936459;29;20386;-60
2021/10/23 00:33:25;;;;;;;2.85;1.25;;;;;;;-0.37;100.00;96134.13;4951979;29;20556;-58
2021/10/23 00:35:51;;;;;;;4.57;1.40;;;;;;;-0.38;100.00;96127.25;4953491;29;20026;-58
2021/10/23 00:38:16;;;;;;;2.80;1.52;;;;;;;-0.42;100.00;96120.69;4953177;29;20606;-61
2021/10/23 00:40:41;;;;;;;6.00;1.65;;;;;;;-0.47;100.00;96124.81;4936554;29;20482;-60
2021/10/23 00:43:09;;;;;;;5.43;1.50;;;;;;;-0.42;100.00;96130.41;4951433;29;20055;-60
2021/10/23 00:45:35;;;;;;;4.85;1.50;;;;;;;-0.34;100.00;96125.06;4953534;29;20034;-60
2021/10/23 00:48:00;;;;;;;5.22;1.75;;;;;;;-0.30;100.00;96124.56;4933082;29;20027;-61
2021/10/23 00:50:28;;;;;;;5.88;2.08;;;;;;;-0.28;100.00;96132.28;4944446;29;20046;-61
2021/10/23 00:52:54;;;;;;;6.25;2.03;;;;;;;-0.33;100.00;96127.56;4952886;29;20038;-61
2021/10/23 00:55:25;;;;;;;8.05;1.83;;;;;;;-0.38;100.00;96126.41;4953390;29;20027;-60
2021/10/23 00:57:51;;;;;;;4.72;2.20;;;;;;;-0.43;100.00;96124.31;4936065;29;20038;-61
2021/10/23 01:00:16;;;;;;;5.72;2.40;;;;;;;-0.46;100.00;96123.81;4952052;29;20019;-60
2021/10/23 01:02:41;;;;;;;5.60;1.90;;;;;;;-0.45;100.00;96121.00;4935998;29;20114;-61
2021/10/23 01:05:08;;;;;;;3.40;1.88;;;;;;;-0.47;100.00;96120.38;4953096;29;20033;-59
2021/10/23 01:07:34;;;;;;;3.38;1.90;;;;;;;-0.47;100.00;96123.00;4953142;29;20530;-61
2021/10/23 01:10:00;;;;;;;5.22;2.17;;;;;;;-0.48;100.00;96126.63;4951824;29;20023;-61
2021/10/23 01:12:26;;;;;;;9.68;2.40;;;;;;;-0.37;100.00;96128.88;4951223;29;20031;-61
2021/10/23 01:14:55;;;;;;;7.30;2.72;;;;;;;-0.29;100.00;96120.13;4952070;29;20082;-58
2021/10/23 01:17:22;;;;;;;8.13;2.20;;;;;;;-0.27;100.00;96122.59;4953062;29;20027;-61
2021/10/23 01:19:51;;;;;;;5.85;2.60;;;;;;;-0.25;100.00;96115.34;4952904;29;20031;-61
2021/10/23 01:22:24;;;;;;;4.72;2.25;;;;;;;-0.28;100.00;96116.50;4935336;29;20031;-61
2021/10/23 01:24:50;;;;;;;5.18;2.20;;;;;;;-0.26;100.00;96109.25;4953166;29;20034;-61
2021/10/23 01:27:18;;;;;;;4.80;2.20;;;;;;;-0.25;100.00;96112.69;4956037;28;20031;-60
2021/10/23 01:29:43;;;;;;;3.85;1.88;;;;;;;-0.23;100.00;96118.59;4957197;29;20050;-59
2021/10/23 01:32:08;;;;;;;8.13;2.00;;;;;;;-0.25;100.00;96117.97;4956186;29;20051;-61
2021/10/23 01:34:34;;;;;;;3.95;1.98;;;;;;;-0.32;100.00;96115.22;4943227;29;20031;-60
2021/10/23 01:36:59;;;;;;;6.28;2.05;;;;;;;-0.33;100.00;96124.06;4951793;29;20054;-60
2021/10/23 01:39:33;;;;;;;6.97;1.55;;;;;;;-0.17;100.00;96113.47;4944934;29;20032;-60
2021/10/23 01:41:58;;;;;;;5.85;1.80;;;;;;;0.09;100.00;96109.69;4936002;29;20051;-60
2021/10/23 01:44:28;;;;;;;6.18;1.73;;;;;;;0.23;100.00;96108.97;4932981;29;20047;-61
2021/10/23 01:46:53;;;;;;;5.57;1.70;;;;;;;0.27;100.00;96104.97;4955254;29;20041;-61
2021/10/23 01:49:19;;;;;;;3.75;1.75;;;;;;;0.36;100.00;96106.56;4939525;29;20503;-61
2021/10/23 01:51:44;;;;;;;4.90;1.58;;;;;;;0.41;100.00;96106.03;4939513;29;20530;-61
2021/10/23 01:54:16;;;;;;;5.50;1.85;;;;;;;0.37;100.00;96097.66;4938681;29;20030;-61
2021/10/23 01:56:42;;;;;;;4.30;1.90;;;;;;;0.29;100.00;96102.97;4955447;29;20035;-61
2021/10/23 01:59:10;;;;;;;5.50;1.48;;;;;;;0.23;100.00;96103.69;4939056;29;20031;-61
2021/10/23 02:01:36;;;;;;;5.50;1.85;;;;;;;0.11;100.00;96110.34;4938890;29;20038;-61
2021/10/23 02:04:10;;;;;;;3.90;1.83;;;;;;;-0.03;100.00;96106.66;4956121;29;20035;-61
2021/10/23 02:06:35;;;;;;;8.00;1.77;;;;;;;-0.15;100.00;96105.41;4956240;29;20491;-61
2021/10/23 02:09:06;;;;;;;6.32;1.70;;;;;;;-0.29;100.00;96109.59;4938772;29;20051;-61
2021/10/23 02:11:32;;;;;;;9.23;1.90;;;;;;;-0.39;100.00;96114.25;4955746;29;20027;-61
2021/10/23 02:13:57;;;;;;;4.55;1.60;;;;;;;-0.47;100.00;96114.28;4955433;29;20030;-61
2021/10/23 02:16:22;;;;;;;3.42;1.48;;;;;;;-0.53;100.00;96117.63;4938845;29;20061;-61
2021/10/23 02:18:48;;;;;;;3.95;1.60;;;;;;;-0.57;100.00;96116.28;4955964;29;20390;-59
2021/10/23 02:21:13;;;;;;;7.05;1.90;;;;;;;-0.59;100.00;96111.19;4955914;29;20058;-57
2021/10/23 02:23:41;;;;;;;4.95;1.70;;;;;;;-0.62;100.00;96114.19;4938220;29;20031;-57
2021/10/23 02:26:09;;;;;;;9.88;2.05;;;;;;;-0.61;100.00;96108.75;4938764;29;20053;-59
2021/10/23 02:28:35;;;;;;;4.60;1.63;;;;;;;-0.57;100.00;96114.47;4955765;29;20059;-59
2021/10/23 02:31:03;;;;;;;5.88;2.00;;;;;;;-0.56;100.00;96116.13;4938538;29;20070;-59
2021/10/23 02:33:41;;;;;;;5.28;1.77;;;;;;;-0.62;100.00;96109.75;4955253;29;20482;-59
2021/10/23 02:36:06;;;;;;;3.38;1.83;;;;;;;-0.64;100.00;96109.09;4931750;29;20672;-59
2021/10/23 02:38:32;;;;;;;5.05;1.67;;;;;;;-0.67;100.00;96116.50;4933776;29;20072;-60
2021/10/23 02:40:57;;;;;;;4.75;2.13;;;;;;;-0.74;100.00;96102.41;4943108;29;20053;-60
2021/10/23 02:43:28;;;;;;;6.50;2.28;;;;;;;-0.76;100.00;96112.25;4969642;28;20163;-57
2021/10/23 02:45:53;;;;;;;6.00;1.98;;;;;;;-0.81;100.00;96099.59;4957297;28;20027;-58
2021/10/23 02:48:19;;;;;;;3.17;2.08;;;;;;;-0.86;100.00;96111.63;4938078;29;20660;-57
2021/10/23 02:50:48;;;;;;;6.50;2.25;;;;;;;-0.89;100.00;96107.50;4953890;29;20027;-51
2021/10/23 02:53:14;;;;;;;4.30;1.52;;;;;;;-0.92;100.00;96108.69;4955055;29;20062;-51
2021/10/23 02:55:42;;;;;;;4.63;1.95;;;;;;;-0.99;100.00;96110.31;4954009;29;20027;-52
2021/10/23 02:58:14;;;;;;;5.43;1.75;;;;;;;-1.05;100.00;96110.19;4947243;29;20055;-58
2021/10/23 03:00:39;;;;;;;4.30;1.77;;;;;;;-1.12;100.00;96112.66;4954455;29;20031;-55
2021/10/23 03:03:05;;;;;;;2.67;1.70;;;;;;;-1.18;100.00;96113.34;4954961;29;20041;-52
2021/10/23 03:05:30;;;;;;;4.75;1.80;;;;;;;-1.22;100.00;96112.84;4955181;29;20034;-59
2021/10/23 03:08:03;;;;;;;5.22;1.80;;;;;;;-1.25;100.00;96113.19;4954808;29;20418;-54
2021/10/23 03:10:28;;;;;;;;;;;;;;;-1.25;100.00;96117.63;4953838;29;20030;-54
2021/10/23 03:12:54;;;;;;;5.43;1.48;;;;;;;-1.26;100.00;96119.44;4953582;28;20369;-60
2021/10/23 03:15:19;;;;;;;4.03;1.95;;;;;;;-1.28;100.00;96120.59;4937726;29;20036;-56
2021/10/23 03:17:47;;;;;;;4.88;1.90;;;;;;;-1.13;100.00;96120.72;4952519;29;20466;-54
2021/10/23 03:20:13;;;;;;;5.40;1.92;;;;;;;-1.06;100.00;96121.72;4954385;29;20082;-51
2021/10/23 03:22:38;;;;;;;6.20;1.80;;;;;;;-1.09;100.00;96108.88;4953220;29;20035;-55
2021/10/23 03:25:07;;;;;;;6.22;1.95;;;;;;;-1.13;100.00;96113.66;4937716;29;20023;-52
2021/10/23 03:27:38;;;;;;;4.78;1.90;;;;;;;-1.20;100.00;96112.66;4954538;28;20027;-55
2021/10/23 03:30:07;;;;;;;5.32;1.75;;;;;;;-1.26;100.00;96116.81;4937114;29;20024;-57
2021/10/23 03:32:36;;;;;;;5.57;1.77;;;;;;;-1.30;100.00;96115.50;4937640;29;20063;-55
2021/10/23 03:35:02;;;;;;;4.20;2.03;;;;;;;-1.36;100.00;96120.59;4954528;29;20034;-55
2021/10/23 03:37:29;;;;;;;4.65;1.50;;;;;;;-1.43;100.00;96120.41;4954310;29;20035;-54
2021/10/23 03:40:04;;;;;;;4.82;1.98;;;;;;;-1.44;100.00;96117.94;4953922;29;20097;-55
2021/10/23 03:42:30;;;;;;;9.32;1.80;;;;;;;-1.39;100.00;96118.28;4937205;29;20027;-55
2021/10/23 03:44:58;;;;;;;2.75;1.60;;;;;;;-1.39;100.00;96121.75;4937288;29;20396;-56
2021/10/23 03:47:31;;;;;;;4.70;1.75;;;;;;;-1.41;100.00;96118.47;4954300;29;20103;-55
2021/10/23 03:49:59;;;;;;;6.05;1.38;;;;;;;-1.44;100.00;96118.78;4953418;28;20042;-55
2021/10/23 03:52:32;;;;;;;4.18;1.63;;;;;;;-1.48;100.00;96115.66;4954197;29;20372;-53
2021/10/23 03:54:57;;;;;;;5.70;1.73;;;;;;;-1.43;100.00;96119.59;4937238;29;20054;-58
2021/10/23 03:57:25;;;;;;;7.65;1.83;;;;;;;-1.39;100.00;96113.03;4937422;29;20078;-53
2021/10/23 03:59:53;;;;;;;2.85;1.50;;;;;;;-1.35;100.00;96107.28;4952734;29;20050;-51
2021/10/23 04:02:18;;;;;;;1.90;1.42;;;;;;;-1.38;100.00;96112.06;4953012;29;20521;-56
2021/10/23 04:04:47;;;;;;;3.65;1.40;;;;;;;-1.44;100.00;96110.88;4954204;29;20055;-53
2021/10/23 04:07:18;;;;;;;5.82;1.65;;;;;;;-1.51;100.00;96112.56;4952922;29;20061;-54
2021/10/23 04:09:44;;;;;;;3.22;1.27;;;;;;;-1.50;100.00;96104.50;4953736;29;20467;-53
2021/10/23 04:12:14;;;;;;;3.67;1.40;;;;;;;-1.49;100.00;96100.88;4952799;29;20081;-51
2021/10/23 04:14:40;;;;;;;3.00;1.50;;;;;;;-1.45;100.00;96106.63;4953690;29;20031;-51
2021/10/23 04:17:05;;;;;;;6.03;2.00;;;;;;;-1.39;100.00;96108.59;4949649;28;20080;-53
2021/10/23 04:19:30;;;;;;;2.63;1.60;;;;;;;-1.37;100.00;96111.06;4971262;28;20113;-53
2021/10/23 04:22:00;;;;;;;3.50;1.65;;;;;;;-1.39;100.00;96115.66;4972928;28;20121;-53
2021/10/23 04:24:25;;;;;;;3.90;1.50;;;;;;;-1.42;100.00;96111.53;4955716;28;20102;-50
2021/10/23 04:26:52;;;;;;;5.50;1.73;;;;;;;-1.43;100.00;96114.34;4973118;28;20474;-52
2021/10/23 04:29:21;;;;;;;4.28;1.80;;;;;;;-1.46;100.00;96110.25;4972924;28;20113;-55
2021/10/23 04:31:56;;;;;;;4.10;1.80;;;;;;;-1.38;100.00;96102.34;4955643;28;20478;-55
2021/10/23 04:34:24;;;;;;;6.13;1.88;;;;;;;-1.31;100.00;96100.69;4972561;28;20031;-55
2021/10/23 04:36:52;;;;;;;3.42;1.70;;;;;;;-1.27;100.00;96103.81;4955623;28;20396;-54
2021/10/23 04:39:18;;;;;;;8.73;2.05;;;;;;;-1.26;100.00;96102.84;4955281;28;20058;-58
2021/10/23 04:41:44;;;;;;;4.40;1.63;;;;;;;-1.21;100.00;96096.06;4966524;28;20157;-56
2021/10/23 04:44:13;;;;;;;5.20;1.88;;;;;;;-1.18;100.00;96093.13;4953116;29;20058;-56
2021/10/23 04:46:38;;;;;;;4.90;1.65;;;;;;;-1.17;100.00;96092.16;4952169;29;20438;-55
2021/10/23 04:49:09;;;;;;;5.15;2.33;;;;;;;-1.18;100.00;96082.63;4953040;29;20078;-52
2021/10/23 04:51:35;;;;;;;4.93;1.70;;;;;;;-1.17;100.00;96086.88;4932692;29;20055;-52
2021/10/23 04:54:00;;;;;;;7.28;1.65;;;;;;;-1.12;100.00;96081.13;4947468;29;20023;-55
2021/10/23 04:56:25;;;;;;;5.15;1.58;;;;;;;-1.03;100.00;96082.75;4952566;29;20038;-55
2021/10/23 04:58:58;;;;;;;4.18;1.90;;;;;;;-0.98;100.00;96077.81;4953261;29;20470;-50
2021/10/23 05:01:23;;;;;;;3.05;1.80;;;;;;;-0.96;100.00;96072.38;4951903;28;20031;-53
2021/10/23 05:03:49;;;;;;;3.70;1.80;;;;;;;-0.95;100.00;96077.47;4935799;29;20038;-49
2021/10/23 05:06:17;;;;;;;2.55;1.60;;;;;;;-0.96;100.00;96072.38;4952184;29;20030;-50
2021/10/23 05:08:43;;;;;;;3.88;2.13;;;;;;;-0.95;100.00;96068.75;4935977;29;20483;-50
2021/10/23 05:11:11;;;;;;;7.13;2.10;;;;;;;-0.85;100.00;96066.75;4952683;29;20028;-55
2021/10/23 05:13:45;;;;;;;4.85;1.95;;;;;;;-0.67;100.00;96061.25;4935903;29;20093;-49
2021/10/23 05:16:16;;;;;;;2.85;1.60;;;;;;;-0.59;100.00;96048.88;4953164;29;20031;-51
2021/10/23 05:18:41;;;;;;;2.67;1.70;;;;;;;-0.57;100.00;96053.13;4935853;29;20031;-50
2021/10/23 05:21:09;;;;;;;4.95;1.98;;;;;;;-0.61;100.00;96045.59;4952589;29;20386;-52
2021/10/23 05:23:34;;;;;;;5.53;2.25;;;;;;;-0.55;100.00;96036.19;4952822;29;20051;-52
2021/10/23 05:26:02;;;;;;;7.03;1.73;;;;;;;-0.50;100.00;96040.94;4953024;29;20453;-50
2021/10/23 05:28:27;;;;;;;5.25;1.65;;;;;;;-0.51;100.00;96037.50;4952926;29;20051;-57
2021/10/23 05:30:59;;;;;;;5.63;2.00;;;;;;;-0.53;100.00;96041.31;4951658;29;20070;-53
2021/10/23 05:33:33;;;;;;;3.20;1.52;;;;;;;-0.56;100.00;96036.34;4951521;29;20034;-55
2021/10/23 05:35:58;;;;;;;2.63;1.60;;;;;;;-0.59;100.00;96040.97;4952944;29;20066;-54
2021/10/23 05:38:31;;;;;;;3.47;1.52;;;;;;;-0.63;100.00;96049.41;4952853;29;20054;-51
2021/10/23 05:40:56;;;;;;;4.05;1.60;;;;;;;-0.67;100.00;96048.09;4952455;29;20024;-50
2021/10/23 05:43:25;;;;;;;4.57;1.67;;;;;;;-0.70;100.00;96038.72;4952581;29;20053;-53
2021/10/23 05:45:53;;;;;;;3.92;1.20;;;;;;;-0.64;100.00;96048.59;4935793;29;20027;-55
2021/10/23 05:48:19;;;;;;;7.63;1.80;;;;;;;-0.58;100.00;96041.81;4952416;29;20537;-53
2021/10/23 05:50:44;;;;;;;3.03;1.67;;;;;;;-0.50;100.00;96048.84;4951143;29;20031;-50
2021/10/23 05:53:12;;;;;;;5.22;1.58;;;;;;;-0.42;100.00;96036.47;4948348;28;20031;-50
2021/10/23 05:55:38;;;;;;;3.53;1.60;;;;;;;-0.37;100.00;96030.66;4951185;28;20061;-52
2021/10/23 05:58:06;;;;;;;6.07;2.10;;;;;;;-0.24;100.00;96030.91;4938734;28;20058;-49
2021/10/23 06:00:35;;;;;;;10.88;2.15;;;;;;;-0.20;100.00;96040.13;4959288;28;20027;-50
2021/10/23 06:03:01;;;;;;;9.20;1.95;;;;;;;-0.14;100.00;96041.22;4829666;29;20043;-49
2021/10/23 06:05:27;;;;;;;3.40;1.63;;;;;;;-0.13;100.00;96033.13;4919527;29;20023;-50
2021/10/23 06:07:52;;;;;;;6.05;1.80;;;;;;;-0.19;100.00;96031.22;4952517;29;20066;-51
2021/10/23 06:10:18;;;;;;;3.47;1.75;;;;;;;-0.27;100.00;96030.44;4934631;29;20023;-51
2021/10/23 06:12:44;;;;;;;5.15;2.10;;;;;;;-0.39;100.00;96030.84;4954058;28;20043;-49
2021/10/23 06:15:10;;;;;;;5.97;1.88;;;;;;;-0.39;100.00;96030.84;4970230;28;20027;-53
2021/10/23 06:17:35;;;;;;;5.32;1.60;;;;;;;-0.25;100.00;96037.16;4967195;28;20042;-51
2021/10/23 06:20:02;;;;;;;5.53;2.20;;;;;;;-0.13;100.00;96038.41;4936428;29;20040;-57
2021/10/23 06:22:27;;;;;;;5.43;2.00;;;;;;;0.03;100.00;96034.84;4950422;28;20034;-52
2021/10/23 06:24:56;;;;;;;8.10;2.30;;;;;;;0.17;100.00;96031.44;4957361;28;20027;-54
2021/10/23 06:27:21;;;;;;;7.90;2.55;;;;;;;0.35;100.00;96036.41;4975130;28;20394;-55
2021/10/23 06:29:46;;;;;;;4.60;2.15;;;;;;;0.39;100.00;96034.22;4974275;28;20076;-55
2021/10/23 06:32:12;;;;;;;6.30;2.00;;;;;;;0.50;100.00;96036.44;4957622;28;20126;-54
2021/10/23 06:34:41;;;;;;;4.55;2.38;;;;;;;0.57;100.00;96038.19;4959464;28;20035;-56
2021/10/23 06:37:10;;;;;;;5.25;2.40;;;;;;;0.57;100.00;96046.09;4974854;28;20034;-52
2021/10/23 06:39:36;;;;;;;6.38;1.92;;;;;;;0.53;100.00;96036.06;4941099;28;20500;-54
2021/10/23 06:42:01;;;;;;;5.55;1.85;;;;;;;0.46;100.00;96051.78;4933128;29;20027;-51
2021/10/23 06:44:32;;;;;;;9.60;2.35;;;;;;;0.39;100.00;96045.59;4954840;29;20130;-51
2021/10/23 06:46:57;;;;;;;6.13;2.45;;;;;;;0.24;100.00;96055.28;4954274;29;20035;-49
2021/10/23 06:49:23;;;;;;;6.15;2.28;;;;;;;0.14;100.00;96062.59;4952645;29;20368;-50
2021/10/23 06:51:48;;;;;;;4.47;2.15;;;;;;;0.06;100.00;96065.28;4955323;29;20491;-57
2021/10/23 06:54:13;;;;;;;5.97;2.03;;;;;;;-0.04;100.00;96068.13;4939294;29;20028;-58
2021/10/23 06:56:41;;;;;;;5.40;2.08;;;;;;;-0.13;100.00;96070.00;4938438;29;20470;-55
2021/10/23 06:59:06;;;;;;;4.28;2.17;;;;;;;-0.20;100.00;96081.41;4954716;29;20086;-55
2021/10/23 07:01:31;;;;;;;6.20;2.45;;;;;;;-0.25;100.00;96073.22;4950415;29;20118;-52
2021/10/23 07:03:57;;;;;;;6.70;2.10;;;;;;;-0.28;100.00;96079.66;4953111;28;20039;-50
2021/10/23 07:06:22;;;;;;;4.53;2.28;;;;;;;-0.33;100.00;96077.53;4938016;29;20023;-57
2021/10/23 07:08:50;;;;;;;6.53;2.10;;;;;;;-0.30;100.00;96084.28;4955176;29;20435;-55
2021/10/23 07:11:16;;;;;;;5.10;1.90;;;;;;;-0.15;100.00;96089.59;4954784;29;20075;-55
2021/10/23 07:13:41;;;;;;;4.30;2.03;;;;;;;0.02;100.00;96091.16;4955677;28;20023;-58
2021/10/23 07:16:06;;;;;;;7.05;2.65;;;;;;;0.27;100.00;96094.44;4956927;28;20038;-53
2021/10/23 07:18:32;;;;;;;4.57;2.35;;;;;;;0.56;100.00;96096.34;4957358;28;20066;-55
2021/10/23 07:20:57;;;;;;;4.90;2.70;;;;;;;0.86;100.00;96097.22;4973488;28;20126;-56
2021/10/23 07:23:22;;;;;;;6.32;3.55;;;;;;;1.13;100.00;96098.44;4939978;28;20118;-52
2021/10/23 07:25:48;;;;;;;9.45;3.72;;;;;;;1.37;100.00;96095.53;4974099;28;20035;-51
2021/10/23 07:28:14;;;;;;;8.23;3.88;;;;;;;1.58;100.00;96097.44;4940569;28;20023;-58
2021/10/23 07:30:39;;;;;;;8.88;4.88;;;;;;;1.70;100.00;96095.94;4973407;28;20414;-53
2021/10/23 07:33:05;;;;;;;8.60;4.13;;;;;;;1.76;100.00;96109.44;4973884;28;20034;-51
2021/10/23 07:35:30;;;;;;;14.25;3.50;;;;;;;1.77;100.00;96108.44;4956595;28;20019;-54
2021/10/23 07:37:56;;;;;;;5.93;3.20;;;;;;;1.73;100.00;96113.25;4973416;28;20026;-54
2021/10/23 07:40:21;;;;;;;5.97;2.45;;;;;;;1.70;100.00;96111.81;4954167;29;20177;-51
2021/10/23 07:42:46;;;;;;;3.65;2.53;;;;;;;1.66;100.00;96115.81;4953968;29;20035;-57
2021/10/23 07:45:12;;;;;;;7.63;2.75;;;;;;;1.65;100.00;96126.56;4953387;29;20031;-50
2021/10/23 07:47:40;;;;;;;5.07;2.45;;;;;;;1.73;100.00;96124.63;4954385;29;20031;-52
2021/10/23 07:50:07;;;;;;;8.32;2.50;;;;;;;1.92;100.00;96123.25;4949380;29;20023;-56
2021/10/23 07:52:33;;;;;;;6.28;2.55;;;;;;;2.22;100.00;96113.41;4951512;29;20038;-55
2021/10/23 07:54:59;;;;;;;4.78;2.95;;;;;;;2.56;100.00;96123.31;4937318;29;20390;-57
2021/10/23 07:57:24;;;;;;;9.57;3.25;;;;;;;2.94;100.00;96116.94;4952766;29;20023;-55
2021/10/23 07:59:52;;;;;;;5.88;2.58;;;;;;;3.28;100.00;96124.91;4953675;29;20398;-54
2021/10/23 08:02:17;;;;;;;3.22;2.60;;;;;;;3.62;100.00;96117.97;4937283;29;20062;-53
2021/10/23 08:04:42;;;;;;;5.82;2.78;;;;;;;3.99;100.00;96119.34;4954045;29;20071;-55
2021/10/23 08:07:08;;;;;;;10.45;3.00;;;;;;;4.33;100.00;96116.59;4952803;29;20038;-54
2021/10/23 08:09:36;;;;;;;5.10;2.92;;;;;;;4.51;100.00;96113.38;4953689;29;20031;-54
2021/10/23 08:12:04;;;;;;;8.43;2.60;;;;;;;4.86;100.00;96111.38;4936207;29;20035;-53
2021/10/23 08:14:30;;;;;;;6.10;2.70;;;;;;;5.21;100.00;96116.50;4952486;29;20034;-58
2021/10/23 08:16:56;;;;;;;6.22;2.80;;;;;;;5.53;100.00;96112.13;4952625;29;20055;-51
2021/10/23 08:19:22;;;;;;;5.20;2.10;;;;;;;5.73;100.00;96104.09;4953282;29;20027;-56
2021/10/23 08:21:48;;;;;;;4.53;2.47;;;;;;;6.09;100.00;96095.63;4953619;29;20386;-51
2021/10/23 08:24:13;;;;;;;3.67;2.15;;;;;;;6.44;100.00;96089.91;4936789;29;20482;-55
2021/10/23 08:26:39;;;;;;;6.32;1.70;;;;;;;6.61;100.00;96086.50;4952162;29;20022;-50
2021/10/23 08:29:05;;;;;;;5.13;1.80;;;;;;;6.79;100.00;96085.78;4952093;29;20027;-51
2021/10/23 08:31:30;;;;;;;4.03;2.03;;;;;;;6.89;100.00;96085.28;4952254;29;20023;-54
2021/10/23 08:33:58;;;;;;;6.53;1.88;;;;;;;6.92;100.00;96077.69;4953549;29;20391;-57
2021/10/23 08:36:26;;;;;;;6.97;2.33;;;;;;;7.10;100.00;96068.94;4952589;28;20033;-58
2021/10/23 08:38:54;;;;;;;8.98;2.25;;;;;;;7.31;100.00;96053.56;4953665;29;20082;-58
2021/10/23 08:41:20;;;;;;;5.43;2.10;;;;;;;7.45;100.00;96045.22;4952910;29;20027;-58
2021/10/23 08:43:47;;;;;;;3.70;1.70;;;;;;;7.65;100.00;96039.66;4964147;23;20045;-60
2021/10/23 08:46:22;;;;;;;3.13;1.70;;;;;;;7.64;100.00;96023.91;5028263;28;20030;-59
2021/10/23 08:48:52;;;;;;;4.97;1.83;;;;;;;7.77;100.00;96013.06;5013415;28;20112;-62
2021/10/23 08:51:19;;;;;;;6.97;2.33;;;;;;;7.91;100.00;95998.50;5030532;28;20026;-62
2021/10/23 08:53:45;;;;;;;3.78;2.00;;;;;;;8.00;100.00;95985.69;5031288;28;20025;-60
2021/10/23 08:56:11;;;;;;;4.43;2.38;;;;;;;8.06;100.00;95972.25;5013189;28;20018;-62
2021/10/23 08:58:38;;;;;;;5.38;1.73;;;;;;;8.12;100.00;95946.50;5031080;28;20036;-61
2021/10/23 09:01:10;;;;;;;5.45;2.10;;;;;;;8.05;100.00;95927.13;5012993;28;20076;-62
2021/10/23 09:03:37;;;;;;;3.35;1.95;;;;;;;8.12;100.00;95887.78;5031291;28;20025;-62
2021/10/23 09:06:03;;;;;;;3.97;1.98;;;;;;;8.26;100.00;95851.88;5013634;28;20037;-62
2021/10/23 09:08:28;;;;;;;6.47;2.15;;;;;;;8.37;100.00;95797.69;5031048;28;20256;-62
2021/10/23 09:10:57;;;;;;;4.68;2.40;;;;;;;8.23;100.00;95750.91;5030130;28;20037;-60
2021/10/23 09:13:33;;;;;;;7.63;2.45;;;;;;;8.33;100.00;95695.06;5031269;28;20057;-62
2021/10/23 09:16:17;;;;;;;5.22;1.92;;;;;;;8.32;100.00;95633.91;5010229;28;20104;-61
2021/10/23 09:18:45;;;;;;;6.03;1.90;;;;;;;8.63;100.00;95604.13;5028528;28;20021;-61
2021/10/23 09:21:20;;;;;;;4.03;1.90;;;;;;;8.99;100.00;95576.16;4996638;28;20022;-62
2021/10/23 09:23:53;;;;;;;5.90;2.30;;;;;;;9.34;100.00;95558.25;5030625;28;20032;-61
2021/10/23 09:26:31;;;;;;;3.87;2.27;;;;;;;9.54;100.00;95566.53;5013538;28;20052;-58
2021/10/23 09:29:14;;;;;;;3.80;1.85;;;;;;;9.73;100.00;95594.63;5030662;28;20287;-60
2021/10/23 09:31:44;;;;;;;4.53;1.60;;;;;;;9.57;100.00;95614.22;5030829;28;20024;-62
2021/10/23 09:34:10;;;;;;;6.55;1.98;;;;;;;9.63;100.00;95639.97;5013767;28;20129;-62
2021/10/23 09:36:44;;;;;;;2.47;1.67;;;;;;;9.62;100.00;95670.44;5029572;28;20033;-61
2021/10/23 09:39:10;;;;;;;4.40;2.08;;;;;;;9.56;100.00;95679.44;5012883;28;20029;-59
2021/10/23 09:41:36;;;;;;;4.47;1.60;;;;;;;9.64;100.00;95702.28;5030459;28;20063;-61
2021/10/23 09:44:14;;;;;;;6.57;1.70;;;;;;;9.76;100.00;95711.03;5012942;28;20041;-59
2021/10/23 09:46:55;;;;;;;5.70;2.13;;;;;;;9.96;100.00;95721.22;5013806;28;20096;-61
2021/10/23 09:49:22;;;;;;;4.15;1.60;;;;;;;10.44;100.00;95732.13;5033083;28;20527;-60
2021/10/23 09:52:03;;;;;;;3.28;1.50;;;;;;;10.67;100.00;95775.81;5017040;28;20021;-62
2021/10/23 09:54:29;;;;;;;4.25;1.70;;;;;;;10.74;100.00;95804.06;5034181;28;20538;-62
2021/10/23 09:56:54;;;;;;;4.45;1.50;;;;;;;10.80;100.00;95821.00;5034563;28;20025;-62
2021/10/23 09:59:29;;;;;;;5.88;1.77;;;;;;;11.04;100.00;95845.69;5033139;28;20031;-62
2021/10/23 10:02:00;;;;;;;5.45;2.20;;;;;;;11.25;100.00;95874.41;5034439;28;20056;-61
2021/10/23 10:04:28;;;;;;;4.90;2.03;;;;;;;10.98;100.00;95925.25;5016669;28;20030;-61
2021/10/23 10:06:54;;;;;;;4.38;1.48;;;;;;;11.11;100.00;95936.69;5034469;28;20399;-62
2021/10/23 10:09:21;;;;;;;5.15;1.70;;;;;;;11.23;100.00;95954.28;5016147;28;20025;-57
2021/10/23 10:11:50;;;;;;;3.22;1.58;;;;;;;11.22;100.00;95971.44;5032725;28;20021;-58
2021/10/23 10:14:16;;;;;;;5.40;1.50;;;;;;;11.31;100.00;95998.66;5017039;28;20086;-60
2021/10/23 10:16:45;;;;;;;5.88;1.52;;;;;;;11.56;100.00;96023.13;5034229;28;20098;-62
2021/10/23 10:19:11;;;;;;;5.50;1.45;;;;;;;11.63;100.00;96043.63;5033660;28;20357;-62
2021/10/23 10:21:37;;;;;;;3.25;1.50;;;;;;;11.62;100.00;96066.97;5015988;28;20036;-60
2021/10/23 10:24:19;;;;;;;3.25;1.38;;;;;;;11.63;100.00;96070.47;5033711;28;20022;-59
2021/10/23 10:27:03;;;;;;;4.70;1.42;;;;;;;11.46;100.00;96111.53;5033963;28;20083;-60
2021/10/23 10:29:50;;;;;;;5.05;1.58;;;;;;;11.57;100.00;96115.19;5033478;28;20545;-63
2021/10/23 10:32:34;;;;;;;3.25;1.50;;;;;;;11.52;100.00;96140.06;5033987;28;20468;-61
2021/10/23 10:38:25;;;;;;;5.45;1.40;;;;;;;11.74;100.00;96169.66;5033510;28;20095;-61
2021/10/23 10:44:15;;;;;;;1.85;1.30;;;;;;;11.69;100.00;96192.91;5002614;28;20041;-62
2021/10/23 10:47:06;;;;;;;5.53;1.73;;;;;;;11.49;100.00;96212.16;5020413;28;20091;-61
2021/10/23 10:49:42;;;;;;;5.40;1.77;;;;;;;11.52;100.00;96201.78;5014750;28;20037;-60
2021/10/23 10:52:40;;;;;;;2.17;1.77;;;;;;;11.46;100.00;96194.69;5015362;28;20036;-62
2021/10/23 10:55:16;;;;;;;3.90;1.65;;;;;;;11.33;100.00;96200.38;5027863;28;20072;-59
2021/10/23 10:58:01;;;;;;;4.35;1.50;;;;;;;11.48;100.00;96191.75;5015095;28;20034;-62
2021/10/23 11:00:45;;;;;;;4.80;1.80;;;;;;;11.21;100.00;96191.59;5014520;28;20124;-62
2021/10/23 11:03:34;;;;;;;3.80;1.90;;;;;;;11.38;100.00;96203.13;5015172;28;20369;-59
2021/10/23 11:06:27;;;;;;;4.50;1.80;;;;;;;11.67;100.00;96211.13;5032695;28;20052;-61
2021/10/23 11:09:10;;;;;;;3.83;2.08;;;;;;;11.51;100.00;96210.88;5032693;28;20431;-61
2021/10/23 11:11:59;;;;;;;;;;;;;;;11.67;100.00;96168.19;5033101;28;20030;-62
2021/10/23 11:14:27;;;;;;;4.97;2.47;;;;;;;11.76;100.00;96143.38;5027621;28;19978;-61
2021/10/23 11:16:55;;;;;;;2.90;1.88;;;;;;;11.77;100.00;96136.94;5032982;28;20022;-59
2021/10/23 11:19:21;;;;;;;5.05;1.95;;;;;;;11.67;100.00;96152.09;5032634;28;20052;-60
2021/10/23 11:21:49;;;;;;;3.08;1.75;;;;;;;11.85;100.00;96155.38;5032253;28;20476;-62
2021/10/23 11:24:15;;;;;;;4.80;1.55;;;;;;;11.51;100.00;96192.13;5011699;28;20030;-57
2021/10/23 11:26:55;;;;;;;5.70;1.90;;;;;;;11.56;100.00;96194.06;5029586;28;20087;-56
2021/10/23 11:29:27;;;;;;;2.80;1.85;;;;;;;11.67;100.00;96186.97;5011216;28;20026;-54
2021/10/23 11:31:57;;;;;;;3.23;1.70;;;;;;;11.94;100.00;96187.13;5011197;28;20026;-58
2021/10/23 11:34:30;;;;;;;2.25;1.52;;;;;;;11.76;100.00;96220.41;5011217;28;20281;-56
2021/10/23 11:37:10;;;;;;;4.45;1.58;;;;;;;11.94;100.00;96209.47;5031545;28;20057;-55
2021/10/23 11:39:57;;;;;;;6.55;1.88;;;;;;;12.02;100.00;96192.09;5011085;28;20403;-54
2021/10/23 11:42:22;;;;;;;3.92;1.65;;;;;;;11.92;100.00;96189.25;5001659;28;20400;-59